sensor_id;sensor_type;location;lat;lon;timestamp;P1;durP1;ratioP1;P2;durP2;ratioP2
47531;SDS011;33273;52.254;7.988;2023-01-16T00:01:33;3.70;;;1.60;;
47531;SDS011;33273;52.254;7.988;2023-01-16T00:04:00;3.45;;;1.50;;
47531;SDS011;33273;52.254;7.988;2023-01-16T00:06:26;7.20;;;1.97;;
47531;SDS011;33273;52.254;7.988;2023-01-16T00:08:52;5.30;;;1.50;;
47531;SDS011;33273;52.254;7.988;2023-01-16T00:11:18;4.17;;;1.47;;
47531;SDS011;33273;52.254;7.988;2023-01-16T00:13:43;5.60;;;1.87;;
47531;SDS011;33273;52.254;7.988;2023-01-16T00:16:09;5.37;;;1.50;;
47531;SDS011;33273;52.254;7.988;2023-01-16T00:18:35;5.70;;;1.93;;
47531;SDS011;33273;52.254;7.988;2023-01-16T00:21:01;4.03;;;1.67;;
47531;SDS011;33273;52.254;7.988;2023-01-16T00:23:27;4.47;;;1.60;;
47531;SDS011;33273;52.254;7.988;2023-01-16T00:25:53;7.60;;;2.00;;
47531;SDS011;33273;52.254;7.988;2023-01-16T00:28:19;3.40;;;1.40;;
47531;SDS011;33273;52.254;7.988;2023-01-16T00:30:45;3.67;;;1.65;;
47531;SDS011;33273;52.254;7.988;2023-01-16T00:33:11;6.03;;;1.30;;
47531;SDS011;33273;52.254;7.988;2023-01-16T00:35:37;7.70;;;2.03;;
47531;SDS011;33273;52.254;7.988;2023-01-16T00:38:05;2.78;;;1.40;;
47531;SDS011;33273;52.254;7.988;2023-01-16T00:40:31;2.88;;;1.40;;
47531;SDS011;33273;52.254;7.988;2023-01-16T00:42:57;2.40;;;1.38;;
47531;SDS011;33273;52.254;7.988;2023-01-16T00:45:23;6.68;;;1.65;;
47531;SDS011;33273;52.254;7.988;2023-01-16T00:47:49;5.25;;;1.92;;
47531;SDS011;33273;52.254;7.988;2023-01-16T00:50:15;2.58;;;1.48;;
47531;SDS011;33273;52.254;7.988;2023-01-16T00:52:41;3.30;;;1.75;;
47531;SDS011;33273;52.254;7.988;2023-01-16T00:55:07;4.97;;;2.00;;
47531;SDS011;33273;52.254;7.988;2023-01-16T00:57:33;2.15;;;1.45;;
47531;SDS011;33273;52.254;7.988;2023-01-16T00:59:59;3.23;;;1.77;;
47531;SDS011;33273;52.254;7.988;2023-01-16T01:02:24;5.50;;;2.30;;
47531;SDS011;33273;52.254;7.988;2023-01-16T01:04:50;3.70;;;1.50;;
47531;SDS011;33273;52.254;7.988;2023-01-16T01:07:16;4.03;;;1.80;;
47531;SDS011;33273;52.254;7.988;2023-01-16T01:09:42;4.40;;;1.60;;
47531;SDS011;33273;52.254;7.988;2023-01-16T01:12:08;3.70;;;1.60;;
47531;SDS011;33273;52.254;7.988;2023-01-16T01:14:34;2.80;;;1.60;;
47531;SDS011;33273;52.254;7.988;2023-01-16T01:17:02;3.57;;;1.90;;
47531;SDS011;33273;52.254;7.988;2023-01-16T01:19:28;2.97;;;1.50;;
47531;SDS011;33273;52.254;7.988;2023-01-16T01:24:21;7.82;;;1.95;;
47531;SDS011;33273;52.254;7.988;2023-01-16T01:26:47;4.33;;;1.40;;
47531;SDS011;33273;52.254;7.988;2023-01-16T01:29:14;3.67;;;1.33;;
47531;SDS011;33273;52.254;7.988;2023-01-16T01:31:39;4.32;;;1.30;;
47531;SDS011;33273;52.254;7.988;2023-01-16T01:34:05;7.17;;;2.00;;
47531;SDS011;33273;52.254;7.988;2023-01-16T01:36:31;4.07;;;1.30;;
47531;SDS011;33273;52.254;7.988;2023-01-16T01:38:57;5.00;;;1.63;;
47531;SDS011;33273;52.254;7.988;2023-01-16T01:41:23;12.40;;;2.20;;
47531;SDS011;33273;52.254;7.988;2023-01-16T01:43:50;3.20;;;1.43;;
47531;SDS011;33273;52.254;7.988;2023-01-16T01:49:00;2.55;;;1.60;;
47531;SDS011;33273;52.254;7.988;2023-01-16T01:51:32;2.88;;;1.30;;
47531;SDS011;33273;52.254;7.988;2023-01-16T01:56:43;3.80;;;1.55;;
47531;SDS011;33273;52.254;7.988;2023-01-16T01:59:17;3.28;;;1.45;;
47531;SDS011;33273;52.254;7.988;2023-01-16T02:01:50;2.05;;;1.30;;
47531;SDS011;33273;52.254;7.988;2023-01-16T02:06:55;4.63;;;2.30;;
47531;SDS011;33273;52.254;7.988;2023-01-16T02:09:23;3.05;;;1.75;;
47531;SDS011;33273;52.254;7.988;2023-01-16T02:11:56;4.28;;;1.80;;
47531;SDS011;33273;52.254;7.988;2023-01-16T02:14:27;4.43;;;1.63;;
47531;SDS011;33273;52.254;7.988;2023-01-16T02:17:05;2.90;;;1.48;;
47531;SDS011;33273;52.254;7.988;2023-01-16T02:48:10;7.28;;;2.80;;
47531;SDS011;33273;52.254;7.988;2023-01-16T02:56:45;5.35;;;2.45;;
47531;SDS011;33273;52.254;7.988;2023-01-16T02:59:17;6.38;;;2.63;;
47531;SDS011;33273;52.254;7.988;2023-01-16T03:01:46;3.30;;;2.25;;
47531;SDS011;33273;52.254;7.988;2023-01-16T03:10:02;4.50;;;2.55;;
47531;SDS011;33273;52.254;7.988;2023-01-16T03:21:28;5.00;;;2.20;;
47531;SDS011;33273;52.254;7.988;2023-01-16T03:24:14;3.72;;;2.35;;
47531;SDS011;33273;52.254;7.988;2023-01-16T03:29:41;6.32;;;2.85;;
47531;SDS011;33273;52.254;7.988;2023-01-16T03:38:03;5.15;;;2.20;;
47531;SDS011;33273;52.254;7.988;2023-01-16T03:40:35;3.50;;;2.05;;
47531;SDS011;33273;52.254;7.988;2023-01-16T03:43:06;3.38;;;1.90;;
47531;SDS011;33273;52.254;7.988;2023-01-16T03:51:33;4.95;;;2.03;;
47531;SDS011;33273;52.254;7.988;2023-01-16T03:57:09;2.72;;;1.63;;
47531;SDS011;33273;52.254;7.988;2023-01-16T03:59:48;3.92;;;2.30;;
47531;SDS011;33273;52.254;7.988;2023-01-16T04:02:30;3.38;;;2.20;;
47531;SDS011;33273;52.254;7.988;2023-01-16T04:10:35;3.83;;;2.22;;
47531;SDS011;33273;52.254;7.988;2023-01-16T04:13:06;4.72;;;2.63;;
47531;SDS011;33273;52.254;7.988;2023-01-16T04:15:38;6.20;;;2.63;;
47531;SDS011;33273;52.254;7.988;2023-01-16T04:18:09;5.20;;;2.25;;
47531;SDS011;33273;52.254;7.988;2023-01-16T04:20:36;5.97;;;2.40;;
47531;SDS011;33273;52.254;7.988;2023-01-16T04:23:06;4.75;;;3.00;;
47531;SDS011;33273;52.254;7.988;2023-01-16T04:25:35;6.77;;;2.40;;
47531;SDS011;33273;52.254;7.988;2023-01-16T04:28:01;4.25;;;2.28;;
47531;SDS011;33273;52.254;7.988;2023-01-16T04:30:27;3.83;;;2.50;;
47531;SDS011;33273;52.254;7.988;2023-01-16T04:32:53;5.33;;;2.47;;
47531;SDS011;33273;52.254;7.988;2023-01-16T04:35:19;4.03;;;2.30;;
47531;SDS011;33273;52.254;7.988;2023-01-16T04:37:45;4.20;;;2.13;;
47531;SDS011;33273;52.254;7.988;2023-01-16T04:40:11;4.03;;;2.00;;
47531;SDS011;33273;52.254;7.988;2023-01-16T04:42:37;7.13;;;2.30;;
47531;SDS011;33273;52.254;7.988;2023-01-16T04:45:04;5.28;;;2.10;;
47531;SDS011;33273;52.254;7.988;2023-01-16T04:47:32;7.53;;;3.13;;
47531;SDS011;33273;52.254;7.988;2023-01-16T04:49:58;3.97;;;1.90;;
47531;SDS011;33273;52.254;7.988;2023-01-16T04:52:23;6.27;;;1.83;;
47531;SDS011;33273;52.254;7.988;2023-01-16T04:54:49;3.95;;;2.17;;
47531;SDS011;33273;52.254;7.988;2023-01-16T04:57:15;5.07;;;1.63;;
47531;SDS011;33273;52.254;7.988;2023-01-16T04:59:42;4.28;;;1.95;;
47531;SDS011;33273;52.254;7.988;2023-01-16T05:02:08;6.00;;;1.85;;
47531;SDS011;33273;52.254;7.988;2023-01-16T05:04:34;3.65;;;2.05;;
47531;SDS011;33273;52.254;7.988;2023-01-16T05:07:00;3.67;;;1.70;;
47531;SDS011;33273;52.254;7.988;2023-01-16T05:09:26;3.20;;;1.70;;
47531;SDS011;33273;52.254;7.988;2023-01-16T05:11:52;5.60;;;1.37;;
47531;SDS011;33273;52.254;7.988;2023-01-16T05:14:17;3.30;;;1.43;;
47531;SDS011;33273;52.254;7.988;2023-01-16T05:16:44;5.65;;;1.55;;
47531;SDS011;33273;52.254;7.988;2023-01-16T05:19:10;2.20;;;1.30;;
47531;SDS011;33273;52.254;7.988;2023-01-16T05:21:37;4.15;;;1.55;;
47531;SDS011;33273;52.254;7.988;2023-01-16T05:24:03;2.60;;;1.43;;
47531;SDS011;33273;52.254;7.988;2023-01-16T05:26:30;2.88;;;1.65;;
47531;SDS011;33273;52.254;7.988;2023-01-16T05:28:57;3.33;;;1.50;;
47531;SDS011;33273;52.254;7.988;2023-01-16T05:31:23;3.38;;;1.50;;
47531;SDS011;33273;52.254;7.988;2023-01-16T05:33:49;2.47;;;1.52;;
47531;SDS011;33273;52.254;7.988;2023-01-16T05:36:15;3.43;;;1.60;;
47531;SDS011;33273;52.254;7.988;2023-01-16T05:38:41;2.83;;;1.23;;
47531;SDS011;33273;52.254;7.988;2023-01-16T05:41:07;6.00;;;1.50;;
47531;SDS011;33273;52.254;7.988;2023-01-16T05:43:33;2.53;;;1.40;;
47531;SDS011;33273;52.254;7.988;2023-01-16T05:45:59;2.53;;;1.20;;
47531;SDS011;33273;52.254;7.988;2023-01-16T05:48:24;2.75;;;1.30;;
47531;SDS011;33273;52.254;7.988;2023-01-16T05:50:50;3.58;;;1.27;;
47531;SDS011;33273;52.254;7.988;2023-01-16T05:53:16;3.50;;;1.23;;
47531;SDS011;33273;52.254;7.988;2023-01-16T05:55:43;3.50;;;1.77;;
47531;SDS011;33273;52.254;7.988;2023-01-16T05:58:11;3.40;;;1.42;;
47531;SDS011;33273;52.254;7.988;2023-01-16T06:00:38;2.28;;;1.13;;
47531;SDS011;33273;52.254;7.988;2023-01-16T06:03:05;2.88;;;2.17;;
47531;SDS011;33273;52.254;7.988;2023-01-16T06:05:33;2.53;;;1.30;;
47531;SDS011;33273;52.254;7.988;2023-01-16T06:07:59;3.53;;;1.00;;
47531;SDS011;33273;52.254;7.988;2023-01-16T06:10:25;6.03;;;1.77;;
47531;SDS011;33273;52.254;7.988;2023-01-16T06:15:17;4.00;;;1.92;;
47531;SDS011;33273;52.254;7.988;2023-01-16T06:17:43;4.25;;;1.50;;
47531;SDS011;33273;52.254;7.988;2023-01-16T06:20:10;2.80;;;1.40;;
47531;SDS011;33273;52.254;7.988;2023-01-16T06:22:36;4.72;;;1.58;;
47531;SDS011;33273;52.254;7.988;2023-01-16T06:25:07;3.35;;;1.90;;
47531;SDS011;33273;52.254;7.988;2023-01-16T06:27:33;3.92;;;1.77;;
47531;SDS011;33273;52.254;7.988;2023-01-16T06:29:59;2.37;;;1.40;;
47531;SDS011;33273;52.254;7.988;2023-01-16T06:32:25;3.90;;;1.63;;
47531;SDS011;33273;52.254;7.988;2023-01-16T06:34:51;3.37;;;2.43;;
47531;SDS011;33273;52.254;7.988;2023-01-16T06:37:20;2.57;;;1.67;;
47531;SDS011;33273;52.254;7.988;2023-01-16T06:39:47;3.72;;;1.40;;
47531;SDS011;33273;52.254;7.988;2023-01-16T06:42:13;2.78;;;1.17;;
47531;SDS011;33273;52.254;7.988;2023-01-16T06:44:43;1.83;;;1.20;;
47531;SDS011;33273;52.254;7.988;2023-01-16T06:47:09;7.53;;;1.40;;
47531;SDS011;33273;52.254;7.988;2023-01-16T06:49:35;2.35;;;1.23;;
47531;SDS011;33273;52.254;7.988;2023-01-16T06:52:01;5.13;;;1.60;;
47531;SDS011;33273;52.254;7.988;2023-01-16T06:54:26;4.37;;;1.60;;
47531;SDS011;33273;52.254;7.988;2023-01-16T06:56:52;2.10;;;1.13;;
47531;SDS011;33273;52.254;7.988;2023-01-16T06:59:18;1.50;;;1.20;;
47531;SDS011;33273;52.254;7.988;2023-01-16T07:01:45;2.10;;;1.10;;
47531;SDS011;33273;52.254;7.988;2023-01-16T07:04:14;3.20;;;1.10;;
47531;SDS011;33273;52.254;7.988;2023-01-16T07:06:40;3.42;;;1.20;;
47531;SDS011;33273;52.254;7.988;2023-01-16T07:09:10;2.63;;;1.10;;
47531;SDS011;33273;52.254;7.988;2023-01-16T07:11:36;4.38;;;1.77;;
47531;SDS011;33273;52.254;7.988;2023-01-16T07:14:03;4.13;;;1.10;;
47531;SDS011;33273;52.254;7.988;2023-01-16T07:16:48;3.20;;;1.30;;
47531;SDS011;33273;52.254;7.988;2023-01-16T07:19:32;3.22;;;1.20;;
47531;SDS011;33273;52.254;7.988;2023-01-16T07:22:17;4.55;;;1.50;;
47531;SDS011;33273;52.254;7.988;2023-01-16T07:25:02;2.78;;;1.58;;
47531;SDS011;33273;52.254;7.988;2023-01-16T07:27:34;4.28;;;1.67;;
47531;SDS011;33273;52.254;7.988;2023-01-16T07:30:02;2.65;;;1.27;;
47531;SDS011;33273;52.254;7.988;2023-01-16T07:32:28;4.00;;;1.00;;
47531;SDS011;33273;52.254;7.988;2023-01-16T07:34:55;1.53;;;1.00;;
47531;SDS011;33273;52.254;7.988;2023-01-16T07:37:21;4.25;;;1.20;;
47531;SDS011;33273;52.254;7.988;2023-01-16T07:39:47;3.67;;;1.13;;
47531;SDS011;33273;52.254;7.988;2023-01-16T07:42:13;3.03;;;1.10;;
47531;SDS011;33273;52.254;7.988;2023-01-16T07:44:39;3.67;;;1.17;;
47531;SDS011;33273;52.254;7.988;2023-01-16T07:47:05;3.65;;;1.35;;
47531;SDS011;33273;52.254;7.988;2023-01-16T07:49:32;4.50;;;1.60;;
47531;SDS011;33273;52.254;7.988;2023-01-16T07:51:58;2.67;;;1.10;;
47531;SDS011;33273;52.254;7.988;2023-01-16T07:54:24;1.63;;;1.43;;
47531;SDS011;33273;52.254;7.988;2023-01-16T07:56:49;3.13;;;1.40;;
47531;SDS011;33273;52.254;7.988;2023-01-16T07:59:16;2.40;;;1.30;;
47531;SDS011;33273;52.254;7.988;2023-01-16T08:01:42;3.17;;;1.10;;
47531;SDS011;33273;52.254;7.988;2023-01-16T08:04:10;2.55;;;1.00;;
47531;SDS011;33273;52.254;7.988;2023-01-16T08:06:36;1.90;;;1.10;;
47531;SDS011;33273;52.254;7.988;2023-01-16T08:09:01;3.30;;;1.27;;
47531;SDS011;33273;52.254;7.988;2023-01-16T08:11:27;3.73;;;1.10;;
47531;SDS011;33273;52.254;7.988;2023-01-16T08:14:03;2.45;;;1.17;;
47531;SDS011;33273;52.254;7.988;2023-01-16T08:18:56;2.55;;;1.20;;
47531;SDS011;33273;52.254;7.988;2023-01-16T08:21:22;1.93;;;1.10;;
47531;SDS011;33273;52.254;7.988;2023-01-16T08:23:48;3.03;;;1.10;;
47531;SDS011;33273;52.254;7.988;2023-01-16T08:26:13;1.87;;;1.37;;
47531;SDS011;33273;52.254;7.988;2023-01-16T08:28:40;2.58;;;1.50;;
47531;SDS011;33273;52.254;7.988;2023-01-16T08:31:06;3.08;;;1.40;;
47531;SDS011;33273;52.254;7.988;2023-01-16T08:33:37;2.03;;;1.25;;
47531;SDS011;33273;52.254;7.988;2023-01-16T08:36:03;4.07;;;1.42;;
47531;SDS011;33273;52.254;7.988;2023-01-16T08:38:30;2.22;;;1.40;;
47531;SDS011;33273;52.254;7.988;2023-01-16T08:40:57;2.45;;;1.30;;
47531;SDS011;33273;52.254;7.988;2023-01-16T08:43:23;4.18;;;1.42;;
47531;SDS011;33273;52.254;7.988;2023-01-16T08:46:27;3.08;;;1.30;;
47531;SDS011;33273;52.254;7.988;2023-01-16T08:49:15;4.55;;;1.40;;
47531;SDS011;33273;52.254;7.988;2023-01-16T08:51:59;2.83;;;1.40;;
47531;SDS011;33273;52.254;7.988;2023-01-16T08:54:25;3.90;;;1.50;;
47531;SDS011;33273;52.254;7.988;2023-01-16T08:56:51;2.20;;;1.17;;
47531;SDS011;33273;52.254;7.988;2023-01-16T08:59:17;2.73;;;1.40;;
47531;SDS011;33273;52.254;7.988;2023-01-16T09:01:44;3.30;;;1.30;;
47531;SDS011;33273;52.254;7.988;2023-01-16T09:04:10;2.10;;;1.20;;
47531;SDS011;33273;52.254;7.988;2023-01-16T09:06:36;2.73;;;1.33;;
47531;SDS011;33273;52.254;7.988;2023-01-16T09:09:03;1.77;;;1.10;;
47531;SDS011;33273;52.254;7.988;2023-01-16T09:11:33;1.65;;;1.00;;
47531;SDS011;33273;52.254;7.988;2023-01-16T09:14:18;3.97;;;1.50;;
47531;SDS011;33273;52.254;7.988;2023-01-16T09:16:44;2.40;;;1.20;;
47531;SDS011;33273;52.254;7.988;2023-01-16T09:19:10;2.97;;;1.20;;
47531;SDS011;33273;52.254;7.988;2023-01-16T09:21:36;3.70;;;1.47;;
47531;SDS011;33273;52.254;7.988;2023-01-16T09:24:02;1.93;;;1.00;;
47531;SDS011;33273;52.254;7.988;2023-01-16T09:26:29;3.28;;;1.30;;
47531;SDS011;33273;52.254;7.988;2023-01-16T09:28:55;4.05;;;1.30;;
47531;SDS011;33273;52.254;7.988;2023-01-16T09:31:22;1.70;;;1.13;;
47531;SDS011;33273;52.254;7.988;2023-01-16T09:33:48;3.38;;;1.20;;
47531;SDS011;33273;52.254;7.988;2023-01-16T09:36:17;3.92;;;1.60;;
47531;SDS011;33273;52.254;7.988;2023-01-16T09:38:43;1.83;;;1.17;;
47531;SDS011;33273;52.254;7.988;2023-01-16T09:41:14;1.60;;;1.20;;
47531;SDS011;33273;52.254;7.988;2023-01-16T09:44:00;2.25;;;1.30;;
47531;SDS011;33273;52.254;7.988;2023-01-16T09:46:28;2.10;;;1.20;;
47531;SDS011;33273;52.254;7.988;2023-01-16T09:49:07;2.67;;;1.40;;
47531;SDS011;33273;52.254;7.988;2023-01-16T09:51:50;4.07;;;1.45;;
47531;SDS011;33273;52.254;7.988;2023-01-16T09:54:41;2.20;;;1.58;;
47531;SDS011;33273;52.254;7.988;2023-01-16T09:57:31;2.35;;;1.40;;
47531;SDS011;33273;52.254;7.988;2023-01-16T10:00:18;7.10;;;2.70;;
47531;SDS011;33273;52.254;7.988;2023-01-16T10:02:47;2.47;;;1.15;;
47531;SDS011;33273;52.254;7.988;2023-01-16T10:05:12;4.23;;;1.70;;
47531;SDS011;33273;52.254;7.988;2023-01-16T10:15:56;3.65;;;1.90;;
47531;SDS011;33273;52.254;7.988;2023-01-16T10:23:49;4.90;;;2.13;;
47531;SDS011;33273;52.254;7.988;2023-01-16T10:26:36;5.22;;;2.20;;
47531;SDS011;33273;52.254;7.988;2023-01-16T10:31:54;7.35;;;2.60;;
47531;SDS011;33273;52.254;7.988;2023-01-16T10:35:14;5.53;;;2.03;;
47531;SDS011;33273;52.254;7.988;2023-01-16T10:37:28;6.55;;;2.40;;
47531;SDS011;33273;52.254;7.988;2023-01-16T10:39:55;5.40;;;3.28;;
47531;SDS011;33273;52.254;7.988;2023-01-16T10:42:28;5.47;;;2.20;;
47531;SDS011;33273;52.254;7.988;2023-01-16T10:45:17;4.47;;;2.70;;
47531;SDS011;33273;52.254;7.988;2023-01-16T10:48:08;7.75;;;2.38;;
47531;SDS011;33273;52.254;7.988;2023-01-16T10:50:59;2.85;;;2.13;;
47531;SDS011;33273;52.254;7.988;2023-01-16T10:55:52;7.25;;;2.30;;
47531;SDS011;33273;52.254;7.988;2023-01-16T10:58:24;4.70;;;2.05;;
47531;SDS011;33273;52.254;7.988;2023-01-16T11:00:56;4.38;;;1.83;;
47531;SDS011;33273;52.254;7.988;2023-01-16T11:08:36;5.30;;;2.42;;
47531;SDS011;33273;52.254;7.988;2023-01-16T11:13:28;4.25;;;1.90;;
47531;SDS011;33273;52.254;7.988;2023-01-16T11:16:21;5.10;;;1.80;;
47531;SDS011;33273;52.254;7.988;2023-01-16T11:19:20;3.53;;;1.90;;
47531;SDS011;33273;52.254;7.988;2023-01-16T11:24:22;3.53;;;1.80;;
47531;SDS011;33273;52.254;7.988;2023-01-16T11:26:54;2.95;;;1.60;;
47531;SDS011;33273;52.254;7.988;2023-01-16T11:29:25;3.78;;;1.75;;
47531;SDS011;33273;52.254;7.988;2023-01-16T11:32:00;4.80;;;1.80;;
47531;SDS011;33273;52.254;7.988;2023-01-16T11:34:30;3.70;;;1.50;;
47531;SDS011;33273;52.254;7.988;2023-01-16T11:36:58;3.75;;;1.30;;
47531;SDS011;33273;52.254;7.988;2023-01-16T11:39:27;3.95;;;1.55;;
47531;SDS011;33273;52.254;7.988;2023-01-16T11:41:56;2.03;;;1.30;;
47531;SDS011;33273;52.254;7.988;2023-01-16T11:44:48;2.85;;;1.50;;
47531;SDS011;33273;52.254;7.988;2023-01-16T11:47:39;2.13;;;1.23;;
47531;SDS011;33273;52.254;7.988;2023-01-16T11:52:52;2.00;;;1.15;;
47531;SDS011;33273;52.254;7.988;2023-01-16T11:55:18;3.10;;;1.47;;
47531;SDS011;33273;52.254;7.988;2023-01-16T11:57:53;3.72;;;1.50;;
47531;SDS011;33273;52.254;7.988;2023-01-16T12:03:50;2.15;;;1.40;;
47531;SDS011;33273;52.254;7.988;2023-01-16T12:09:19;2.00;;;1.08;;
47531;SDS011;33273;52.254;7.988;2023-01-16T12:11:56;1.45;;;1.02;;
47531;SDS011;33273;52.254;7.988;2023-01-16T12:15:15;3.03;;;1.13;;
47531;SDS011;33273;52.254;7.988;2023-01-16T12:20:34;2.05;;;1.00;;
47531;SDS011;33273;52.254;7.988;2023-01-16T12:41:39;0.82;;;0.82;;
47531;SDS011;33273;52.254;7.988;2023-01-16T12:46:58;1.15;;;0.80;;
47531;SDS011;33273;52.254;7.988;2023-01-16T12:49:49;1.15;;;0.80;;
47531;SDS011;33273;52.254;7.988;2023-01-16T12:55:37;1.55;;;0.80;;
47531;SDS011;33273;52.254;7.988;2023-01-16T12:58:17;1.65;;;1.00;;
47531;SDS011;33273;52.254;7.988;2023-01-16T13:03:26;1.35;;;0.80;;
47531;SDS011;33273;52.254;7.988;2023-01-16T13:06:06;1.08;;;0.90;;
47531;SDS011;33273;52.254;7.988;2023-01-16T13:08:42;1.15;;;0.70;;
47531;SDS011;33273;52.254;7.988;2023-01-16T13:11:13;3.30;;;0.90;;
47531;SDS011;33273;52.254;7.988;2023-01-16T13:14:06;2.13;;;1.00;;
47531;SDS011;33273;52.254;7.988;2023-01-16T13:16:40;1.80;;;0.80;;
47531;SDS011;33273;52.254;7.988;2023-01-16T13:19:15;1.00;;;0.70;;
47531;SDS011;33273;52.254;7.988;2023-01-16T13:24:21;0.60;;;0.60;;
47531;SDS011;33273;52.254;7.988;2023-01-16T13:26:53;1.50;;;0.80;;
47531;SDS011;33273;52.254;7.988;2023-01-16T13:29:28;1.92;;;0.95;;
47531;SDS011;33273;52.254;7.988;2023-01-16T13:32:02;0.85;;;0.80;;
47531;SDS011;33273;52.254;7.988;2023-01-16T13:34:49;2.95;;;0.95;;
47531;SDS011;33273;52.254;7.988;2023-01-16T13:42:26;1.52;;;0.65;;
47531;SDS011;33273;52.254;7.988;2023-01-16T13:45:02;1.15;;;0.80;;
47531;SDS011;33273;52.254;7.988;2023-01-16T13:47:49;1.00;;;0.80;;
47531;SDS011;33273;52.254;7.988;2023-01-16T13:50:24;1.13;;;0.80;;
47531;SDS011;33273;52.254;7.988;2023-01-16T13:52:56;1.38;;;0.80;;
47531;SDS011;33273;52.254;7.988;2023-01-16T13:55:28;1.20;;;0.82;;
47531;SDS011;33273;52.254;7.988;2023-01-16T13:58:06;1.08;;;0.73;;
47531;SDS011;33273;52.254;7.988;2023-01-16T14:00:35;1.15;;;0.70;;
47531;SDS011;33273;52.254;7.988;2023-01-16T14:03:15;1.65;;;0.90;;
47531;SDS011;33273;52.254;7.988;2023-01-16T14:05:47;1.20;;;0.80;;
47531;SDS011;33273;52.254;7.988;2023-01-16T14:08:19;2.55;;;1.00;;
47531;SDS011;33273;52.254;7.988;2023-01-16T14:11:39;1.95;;;0.70;;
47531;SDS011;33273;52.254;7.988;2023-01-16T14:17:07;1.10;;;0.80;;
47531;SDS011;33273;52.254;7.988;2023-01-16T14:19:38;1.52;;;0.80;;
47531;SDS011;33273;52.254;7.988;2023-01-16T14:22:17;0.80;;;0.80;;
47531;SDS011;33273;52.254;7.988;2023-01-16T14:24:46;2.17;;;0.90;;
47531;SDS011;33273;52.254;7.988;2023-01-16T14:27:19;1.35;;;0.75;;
47531;SDS011;33273;52.254;7.988;2023-01-16T14:29:49;0.80;;;0.65;;
47531;SDS011;33273;52.254;7.988;2023-01-16T14:32:23;0.88;;;0.80;;
47531;SDS011;33273;52.254;7.988;2023-01-16T14:35:10;1.42;;;0.90;;
47531;SDS011;33273;52.254;7.988;2023-01-16T14:37:59;2.17;;;0.80;;
47531;SDS011;33273;52.254;7.988;2023-01-16T14:40:30;2.55;;;0.90;;
47531;SDS011;33273;52.254;7.988;2023-01-16T14:43:31;1.30;;;0.70;;
47531;SDS011;33273;52.254;7.988;2023-01-16T14:55:24;1.23;;;0.90;;
47531;SDS011;33273;52.254;7.988;2023-01-16T14:57:54;1.40;;;0.90;;
47531;SDS011;33273;52.254;7.988;2023-01-16T15:00:21;1.50;;;1.00;;
47531;SDS011;33273;52.254;7.988;2023-01-16T15:02:50;0.82;;;0.77;;
47531;SDS011;33273;52.254;7.988;2023-01-16T15:05:42;2.28;;;0.90;;
47531;SDS011;33273;52.254;7.988;2023-01-16T15:08:26;1.10;;;0.77;;
47531;SDS011;33273;52.254;7.988;2023-01-16T15:11:00;2.42;;;1.40;;
47531;SDS011;33273;52.254;7.988;2023-01-16T15:14:02;1.90;;;1.10;;
47531;SDS011;33273;52.254;7.988;2023-01-16T15:16:55;4.22;;;1.67;;
47531;SDS011;33273;52.254;7.988;2023-01-16T15:22:44;4.53;;;1.98;;
47531;SDS011;33273;52.254;7.988;2023-01-16T15:27:41;1.15;;;0.95;;
47531;SDS011;33273;52.254;7.988;2023-01-16T15:30:13;8.43;;;3.03;;
47531;SDS011;33273;52.254;7.988;2023-01-16T15:32:59;3.63;;;1.92;;
47531;SDS011;33273;52.254;7.988;2023-01-16T15:35:44;2.03;;;0.90;;
47531;SDS011;33273;52.254;7.988;2023-01-16T15:38:20;1.38;;;0.95;;
47531;SDS011;33273;52.254;7.988;2023-01-16T15:40:49;2.20;;;1.05;;
47531;SDS011;33273;52.254;7.988;2023-01-16T15:43:17;1.45;;;0.95;;
47531;SDS011;33273;52.254;7.988;2023-01-16T15:46:12;1.05;;;0.88;;
47531;SDS011;33273;52.254;7.988;2023-01-16T15:51:27;1.35;;;0.90;;
47531;SDS011;33273;52.254;7.988;2023-01-16T15:53:54;1.10;;;0.90;;
47531;SDS011;33273;52.254;7.988;2023-01-16T16:04:46;3.15;;;1.50;;
47531;SDS011;33273;52.254;7.988;2023-01-16T16:07:13;3.22;;;1.70;;
47531;SDS011;33273;52.254;7.988;2023-01-16T16:09:41;1.70;;;1.40;;
47531;SDS011;33273;52.254;7.988;2023-01-16T16:12:10;2.53;;;1.35;;
47531;SDS011;33273;52.254;7.988;2023-01-16T16:14:37;3.33;;;1.70;;
47531;SDS011;33273;52.254;7.988;2023-01-16T16:17:24;4.03;;;1.70;;
47531;SDS011;33273;52.254;7.988;2023-01-16T16:20:22;3.25;;;1.48;;
47531;SDS011;33273;52.254;7.988;2023-01-16T16:23:00;2.78;;;1.52;;
47531;SDS011;33273;52.254;7.988;2023-01-16T16:28:02;3.42;;;1.52;;
47531;SDS011;33273;52.254;7.988;2023-01-16T16:30:30;1.30;;;1.10;;
47531;SDS011;33273;52.254;7.988;2023-01-16T16:32:56;1.75;;;1.17;;
47531;SDS011;33273;52.254;7.988;2023-01-16T16:35:34;2.08;;;1.40;;
47531;SDS011;33273;52.254;7.988;2023-01-16T16:38:01;2.15;;;1.30;;
47531;SDS011;33273;52.254;7.988;2023-01-16T16:40:28;2.85;;;1.40;;
47531;SDS011;33273;52.254;7.988;2023-01-16T16:42:57;4.07;;;1.55;;
47531;SDS011;33273;52.254;7.988;2023-01-16T16:46:13;3.00;;;1.75;;
47531;SDS011;33273;52.254;7.988;2023-01-16T16:49:33;2.15;;;1.55;;
47531;SDS011;33273;52.254;7.988;2023-01-16T16:51:40;2.20;;;1.30;;
47531;SDS011;33273;52.254;7.988;2023-01-16T16:54:08;2.17;;;1.50;;
47531;SDS011;33273;52.254;7.988;2023-01-16T16:56:38;2.50;;;1.70;;
47531;SDS011;33273;52.254;7.988;2023-01-16T16:59:14;2.10;;;1.65;;
47531;SDS011;33273;52.254;7.988;2023-01-16T17:01:47;2.15;;;1.42;;
47531;SDS011;33273;52.254;7.988;2023-01-16T17:04:15;2.13;;;1.40;;
47531;SDS011;33273;52.254;7.988;2023-01-16T17:06:42;2.75;;;1.70;;
47531;SDS011;33273;52.254;7.988;2023-01-16T17:09:14;2.05;;;1.58;;
47531;SDS011;33273;52.254;7.988;2023-01-16T17:11:42;2.00;;;1.38;;
47531;SDS011;33273;52.254;7.988;2023-01-16T17:14:09;1.83;;;1.35;;
47531;SDS011;33273;52.254;7.988;2023-01-16T17:16:36;2.72;;;1.80;;
47531;SDS011;33273;52.254;7.988;2023-01-16T17:19:05;2.20;;;1.60;;
47531;SDS011;33273;52.254;7.988;2023-01-16T17:21:44;2.42;;;1.77;;
47531;SDS011;33273;52.254;7.988;2023-01-16T17:24:13;1.83;;;1.30;;
47531;SDS011;33273;52.254;7.988;2023-01-16T17:26:40;2.70;;;1.60;;
47531;SDS011;33273;52.254;7.988;2023-01-16T17:29:07;2.55;;;1.40;;
47531;SDS011;33273;52.254;7.988;2023-01-16T17:31:36;2.60;;;1.75;;
47531;SDS011;33273;52.254;7.988;2023-01-16T17:34:05;2.30;;;1.60;;
47531;SDS011;33273;52.254;7.988;2023-01-16T17:36:35;2.38;;;1.55;;
47531;SDS011;33273;52.254;7.988;2023-01-16T17:39:01;2.70;;;1.83;;
47531;SDS011;33273;52.254;7.988;2023-01-16T17:41:30;2.70;;;1.65;;
47531;SDS011;33273;52.254;7.988;2023-01-16T17:44:24;2.67;;;1.40;;
47531;SDS011;33273;52.254;7.988;2023-01-16T17:47:10;2.65;;;1.77;;
47531;SDS011;33273;52.254;7.988;2023-01-16T17:49:39;4.00;;;2.38;;
47531;SDS011;33273;52.254;7.988;2023-01-16T17:52:26;2.80;;;1.60;;
47531;SDS011;33273;52.254;7.988;2023-01-16T17:54:52;3.05;;;1.70;;
47531;SDS011;33273;52.254;7.988;2023-01-16T17:57:36;2.42;;;1.60;;
47531;SDS011;33273;52.254;7.988;2023-01-16T18:00:02;3.07;;;1.63;;
47531;SDS011;33273;52.254;7.988;2023-01-16T18:02:30;2.50;;;1.70;;
47531;SDS011;33273;52.254;7.988;2023-01-16T18:04:56;2.10;;;1.60;;
47531;SDS011;33273;52.254;7.988;2023-01-16T18:07:22;2.17;;;1.50;;
47531;SDS011;33273;52.254;7.988;2023-01-16T18:09:48;3.22;;;1.80;;
47531;SDS011;33273;52.254;7.988;2023-01-16T18:12:15;2.67;;;1.75;;
47531;SDS011;33273;52.254;7.988;2023-01-16T18:15:00;3.13;;;1.70;;
47531;SDS011;33273;52.254;7.988;2023-01-16T18:17:46;2.35;;;1.67;;
47531;SDS011;33273;52.254;7.988;2023-01-16T18:20:11;3.17;;;1.70;;
47531;SDS011;33273;52.254;7.988;2023-01-16T18:22:38;3.35;;;1.67;;
47531;SDS011;33273;52.254;7.988;2023-01-16T18:25:04;5.65;;;2.88;;
47531;SDS011;33273;52.254;7.988;2023-01-16T18:27:32;2.65;;;1.80;;
47531;SDS011;33273;52.254;7.988;2023-01-16T18:29:58;2.78;;;1.50;;